Time;durP1;ratioP1;P1;durP2;ratioP2;P2;SDS_P1;SDS_P2;PMS_P1;PMS_P2;Temp;Humidity;BMP_temperature;BMP_pressure;BME280_temperature;BME280_humidity;BME280_pressure;Samples;Min_cycle;Max_cycle;Signal;HPM_P1;HPM_P2
2023/07/03 00:00:12;;;;;;;25.17;4.55;;;;;;;-142.75;100.00;75910.91;5068532;28;20029;-64
2023/07/03 00:02:42;;;;;;;15.20;2.90;;;;;;;-142.75;100.00;75916.81;5068185;28;20013;-65
2023/07/03 00:05:09;;;;;;;19.38;3.33;;;;;;;-142.75;100.00;75936.50;5068147;28;20021;-65
2023/07/03 00:07:36;;;;;;;20.38;3.67;;;;;;;-142.75;100.00;75948.31;5068224;28;20051;-61
2023/07/03 00:10:04;;;;;;;16.25;3.55;;;;;;;-142.75;100.00;75940.44;5068551;28;20510;-64
2023/07/03 00:12:30;;;;;;;17.48;2.92;;;;;;;-142.75;100.00;75936.50;5068544;28;20027;-64
2023/07/03 00:14:55;;;;;;;18.67;2.72;;;;;;;-142.75;100.00;75952.25;5067111;28;20028;-65
2023/07/03 00:17:20;;;;;;;22.65;3.65;;;;;;;-142.75;100.00;75944.38;5068321;28;20027;-64
2023/07/03 00:19:46;;;;;;;16.95;2.97;;;;;;;-142.75;100.00;75944.38;5068081;28;20089;-65
2023/07/03 00:22:11;;;;;;;17.58;3.25;;;;;;;-142.75;100.00;75924.69;5067746;28;20446;-63
2023/07/03 00:24:36;;;;;;;26.73;3.45;;;;;;;-142.75;100.00;75954.22;5067740;28;20365;-64
2023/07/03 00:27:02;;;;;;;25.08;4.43;;;;;;;-142.75;100.00;75952.25;5068612;28;20563;-64
2023/07/03 00:29:31;;;;;;;23.23;3.90;;;;;;;-142.75;100.00;75948.31;5067923;28;20511;-64
2023/07/03 00:31:58;;;;;;;16.23;2.85;;;;;;;-142.75;100.00;75948.31;5068284;28;20051;-64
2023/07/03 00:34:26;;;;;;;26.58;3.83;;;;;;;-142.75;100.00;75956.19;5068085;28;20036;-64
2023/07/03 00:36:52;;;;;;;22.15;3.40;;;;;;;-142.75;100.00;75948.31;5047007;28;20055;-64
2023/07/03 00:39:17;;;;;;;22.05;3.08;;;;;;;-142.75;100.00;75950.28;5048664;28;20060;-64
2023/07/03 00:41:43;;;;;;;19.17;2.53;;;;;;;-142.75;100.00;75960.13;5048352;28;20163;-65
2023/07/03 00:44:14;;;;;;;22.15;3.33;;;;;;;-142.75;100.00;75940.44;5048685;28;20068;-64
2023/07/03 00:46:41;;;;;;;20.70;3.50;;;;;;;-142.75;100.00;75936.50;5048451;28;20029;-64
2023/07/03 00:49:09;;;;;;;12.93;2.53;;;;;;;-142.75;100.00;75948.31;5047636;28;20032;-64
2023/07/03 00:51:39;;;;;;;17.63;3.47;;;;;;;-142.75;100.00;75952.25;5047997;28;20444;-64
2023/07/03 00:54:04;;;;;;;22.05;3.05;;;;;;;-142.75;100.00;75956.19;5048433;28;20021;-65
2023/07/03 00:56:30;;;;;;;13.25;3.15;;;;;;;-142.75;100.00;75946.34;5047796;28;20086;-64
2023/07/03 00:58:55;;;;;;;22.83;3.63;;;;;;;-142.75;100.00;75938.47;5047858;28;20025;-64
2023/07/03 01:01:34;;;;;;;22.45;3.38;;;;;;;-142.75;100.00;75916.81;5048051;28;20480;-65
2023/07/03 01:04:41;;;;;;;19.65;3.38;;;;;;;-142.75;100.00;75920.75;5048001;28;20108;-64
2023/07/03 01:07:12;;;;;;;21.00;3.28;;;;;;;-142.75;100.00;75910.91;5042762;28;20052;-64
2023/07/03 01:09:43;;;;;;;18.00;2.97;;;;;;;-142.75;100.00;75897.13;5053836;28;20033;-65
2023/07/03 01:12:10;;;;;;;18.73;3.22;;;;;;;-142.75;100.00;75916.81;5065001;28;20021;-65
2023/07/03 01:14:38;;;;;;;21.02;3.08;;;;;;;-142.75;100.00;75912.88;5046942;28;20025;-65
2023/07/03 01:17:09;;;;;;;15.68;3.15;;;;;;;-142.75;100.00;75901.06;5045357;28;20057;-65
2023/07/03 01:19:36;;;;;;;18.50;3.17;;;;;;;-142.75;100.00;75905.00;5043349;28;20116;-66
2023/07/03 01:22:14;;;;;;;19.20;3.60;;;;;;;-142.75;100.00;75895.16;5044511;28;20099;-64
2023/07/03 01:24:45;;;;;;;15.75;2.80;;;;;;;-142.75;100.00;75887.28;5044315;28;20029;-64
2023/07/03 01:27:14;;;;;;;16.23;3.00;;;;;;;-142.75;100.00;75893.19;5053207;28;20032;-64
2023/07/03 01:29:41;;;;;;;19.50;3.45;;;;;;;-142.75;100.00;75889.25;5064039;28;20020;-64
2023/07/03 01:32:10;;;;;;;17.65;3.45;;;;;;;-142.75;100.00;75877.44;5064188;28;20079;-65
2023/07/03 01:34:45;;;;;;;15.65;2.80;;;;;;;-142.75;100.00;75867.59;5064055;28;20040;-65
2023/07/03 01:37:12;;;;;;;20.38;3.47;;;;;;;-142.75;100.00;75865.63;5064065;28;20032;-64
2023/07/03 01:39:38;;;;;;;20.30;3.65;;;;;;;-142.75;100.00;75863.66;5060209;28;20439;-64
2023/07/03 01:42:05;;;;;;;26.73;4.22;;;;;;;-142.75;100.00;75869.56;5045093;28;20365;-64
2023/07/03 01:44:31;;;;;;;18.17;3.15;;;;;;;-142.75;100.00;75881.38;5043420;28;20083;-64
2023/07/03 01:47:04;;;;;;;21.17;4.38;;;;;;;-142.75;100.00;75881.38;5044523;28;20029;-65
2023/07/03 01:49:30;;;;;;;16.58;3.20;;;;;;;-142.75;100.00;75906.97;5044451;28;20104;-65
2023/07/03 01:52:05;;;;;;;19.33;2.97;;;;;;;-142.75;100.00;75895.16;5044026;28;20560;-65
2023/07/03 01:54:52;;;;;;;18.88;2.88;;;;;;;-142.75;100.00;75893.19;5044331;28;20028;-65
2023/07/03 01:57:31;;;;;;;25.13;3.15;;;;;;;-142.75;100.00;75918.78;5043836;28;20047;-65
2023/07/03 01:59:58;;;;;;;18.50;3.55;;;;;;;-142.75;100.00;75893.19;5044093;28;20115;-65
2023/07/03 02:02:29;;;;;;;14.80;2.72;;;;;;;-142.75;100.00;75916.81;5043106;28;20036;-64
2023/07/03 02:04:57;;;;;;;16.45;3.15;;;;;;;-142.75;100.00;75910.91;5062492;28;20024;-65
2023/07/03 02:07:24;;;;;;;10.30;2.60;;;;;;;-142.75;100.00;75908.94;5046992;28;20029;-64
2023/07/03 02:09:50;;;;;;;13.82;2.72;;;;;;;-142.75;100.00;75918.78;5043817;28;20021;-65
2023/07/03 02:12:15;;;;;;;23.40;3.58;;;;;;;-142.75;100.00;75942.41;5043955;28;20122;-65
2023/07/03 02:14:41;;;;;;;15.65;2.20;;;;;;;-142.75;100.00;75928.63;5043758;28;20033;-65
2023/07/03 02:17:06;;;;;;;16.27;2.72;;;;;;;-142.75;100.00;75936.50;5044164;28;20324;-65
2023/07/03 02:19:33;;;;;;;11.77;2.40;;;;;;;-142.75;100.00;75944.38;5043970;28;20044;-65
2023/07/03 02:21:58;;;;;;;12.27;2.85;;;;;;;-142.75;100.00;75936.50;5055022;28;20507;-64
2023/07/03 02:24:24;;;;;;;12.05;2.33;;;;;;;-142.75;100.00;75966.00;5055839;28;20029;-65
2023/07/03 02:26:51;;;;;;;13.55;2.40;;;;;;;-142.75;100.00;75946.34;5043258;28;20028;-65
2023/07/03 02:29:16;;;;;;;17.20;2.80;;;;;;;-142.75;100.00;75948.31;5056743;28;20551;-65
2023/07/03 02:31:42;;;;;;;13.35;1.92;;;;;;;-142.75;100.00;75960.13;5062591;28;20146;-65
2023/07/03 02:34:07;;;;;;;6.40;1.45;;;;;;;-142.75;100.00;75979.78;5062762;28;20055;-65
2023/07/03 02:36:34;;;;;;;11.95;1.75;;;;;;;-142.75;100.00;75993.56;5062995;28;20115;-66
2023/07/03 02:39:01;;;;;;;8.30;1.92;;;;;;;-142.75;100.00;75981.75;5054285;28;20021;-65
2023/07/03 02:41:27;;;;;;;10.15;1.80;;;;;;;-142.75;100.00;75983.72;5043440;28;20392;-64
2023/07/03 02:43:52;;;;;;;6.03;1.50;;;;;;;-142.75;100.00;75993.56;5043705;28;20037;-65
2023/07/03 02:46:17;;;;;;;12.80;2.17;;;;;;;-142.75;100.00;75987.66;5043816;28;20138;-64
2023/07/03 02:48:43;;;;;;;6.60;1.40;;;;;;;-142.75;100.00;75995.53;5042994;28;20082;-64
2023/07/03 02:51:08;;;;;;;10.63;2.33;;;;;;;-142.75;100.00;75985.69;5042851;28;20032;-64
2023/07/03 02:53:34;;;;;;;11.07;1.63;;;;;;;-142.75;100.00;76001.44;5042758;28;20028;-64
2023/07/03 02:55:59;;;;;;;5.10;1.52;;;;;;;-142.75;100.00;76009.31;5043101;28;20029;-64
2023/07/03 02:58:25;;;;;;;9.05;1.42;;;;;;;-142.75;100.00;76027.03;5042627;28;20079;-65
2023/07/03 03:00:51;;;;;;;7.47;1.35;;;;;;;-142.75;100.00;76030.97;5043152;28;20523;-64
2023/07/03 03:03:17;;;;;;;6.82;1.20;;;;;;;-142.75;100.00;76011.28;5043000;28;20415;-64
2023/07/03 03:05:42;;;;;;;5.95;1.20;;;;;;;-142.75;100.00;76019.16;5042537;28;20027;-64
2023/07/03 03:08:08;;;;;;;4.47;1.13;;;;;;;-142.75;100.00;76013.25;5061640;28;20451;-65
2023/07/03 03:10:34;;;;;;;3.95;1.02;;;;;;;-142.75;100.00;76023.09;5062425;28;20578;-64
2023/07/03 03:12:59;;;;;;;5.20;0.90;;;;;;;-142.75;100.00;76034.91;5061406;28;20028;-64
2023/07/03 03:15:26;;;;;;;4.72;1.10;;;;;;;-142.75;100.00;76015.22;5062356;28;20016;-66
2023/07/03 03:17:51;;;;;;;6.18;0.98;;;;;;;-142.75;100.00;76019.16;5062593;28;20024;-65
2023/07/03 03:20:17;;;;;;;6.20;1.10;;;;;;;-142.75;100.00;76027.03;5061757;28;20031;-64
2023/07/03 03:22:42;;;;;;;8.48;1.25;;;;;;;-142.75;100.00;76030.97;5054813;28;20108;-65
2023/07/03 03:25:08;;;;;;;6.30;1.15;;;;;;;-142.75;100.00;76042.78;5041595;28;20025;-64
2023/07/03 03:27:33;;;;;;;5.53;1.00;;;;;;;-142.75;100.00;76044.75;5041851;28;20428;-64
2023/07/03 03:29:59;;;;;;;7.13;1.52;;;;;;;-142.75;100.00;76054.59;5040945;28;20021;-64
2023/07/03 03:32:24;;;;;;;6.20;1.15;;;;;;;-142.75;100.00;76054.59;5059236;28;20105;-64
2023/07/03 03:34:50;;;;;;;6.00;0.70;;;;;;;-142.75;100.00;76052.63;5061050;28;20028;-64
2023/07/03 03:37:17;;;;;;;7.10;0.88;;;;;;;-142.75;100.00;76052.63;5043646;28;20036;-64
2023/07/03 03:39:42;;;;;;;2.50;0.77;;;;;;;-142.75;100.00;76052.63;5040146;28;20400;-64
2023/07/03 03:42:09;;;;;;;3.83;0.90;;;;;;;-142.75;100.00;76046.72;5052179;28;20028;-65
2023/07/03 03:44:35;;;;;;;4.55;0.80;;;;;;;-142.75;100.00;76044.75;5048347;28;20025;-65
2023/07/03 03:47:00;;;;;;;5.03;1.50;;;;;;;-142.75;100.00;76030.97;5042964;28;20059;-65
2023/07/03 03:49:25;;;;;;;7.03;1.02;;;;;;;-142.75;100.00;76040.81;5040547;28;20071;-64
2023/07/03 03:51:51;;;;;;;5.53;1.13;;;;;;;-142.75;100.00;76038.84;5041267;28;20507;-64
2023/07/03 03:54:16;;;;;;;9.23;1.30;;;;;;;-142.75;100.00;76032.94;5041072;28;20107;-64
2023/07/03 03:56:41;;;;;;;6.70;2.10;;;;;;;-142.75;100.00;76048.69;5039175;28;20055;-65
2023/07/03 03:59:07;;;;;;;6.15;1.10;;;;;;;-142.75;100.00;76052.63;5040415;28;20037;-64
2023/07/03 04:01:34;;;;;;;6.53;1.02;;;;;;;-142.75;100.00;76054.59;5040096;28;20090;-63
2023/07/03 04:03:59;;;;;;;7.65;1.05;;;;;;;-142.75;100.00;76060.50;5041649;28;20017;-64
2023/07/03 04:06:26;;;;;;;7.18;0.88;;;;;;;-142.75;100.00;76042.78;5040817;28;20126;-64
2023/07/03 04:08:52;;;;;;;4.63;0.95;;;;;;;-142.75;100.00;76070.34;5039936;28;20388;-64
2023/07/03 04:11:17;;;;;;;9.50;1.10;;;;;;;-142.75;100.00;76086.06;5041477;28;20032;-64
2023/07/03 04:13:43;;;;;;;8.63;1.02;;;;;;;-142.75;100.00;76070.34;5041107;28;20025;-64
2023/07/03 04:16:09;;;;;;;8.50;1.08;;;;;;;-142.75;100.00;76066.41;5041372;28;20082;-64
2023/07/03 04:18:35;;;;;;;3.72;0.90;;;;;;;-142.75;100.00;76091.97;5039761;28;20021;-65
2023/07/03 04:21:00;;;;;;;6.03;1.20;;;;;;;-142.75;100.00;76086.06;5039967;28;20043;-64
2023/07/03 04:23:26;;;;;;;3.10;0.73;;;;;;;-142.75;100.00;76080.16;5052108;28;20024;-64
2023/07/03 04:25:52;;;;;;;5.40;1.15;;;;;;;-142.75;100.00;76080.16;5043862;28;20032;-64
2023/07/03 04:28:20;;;;;;;5.85;0.95;;;;;;;-142.75;100.00;76090.00;5046293;28;20021;-64
2023/07/03 04:30:46;;;;;;;6.72;1.25;;;;;;;-142.75;100.00;76090.00;5042067;28;20024;-64
2023/07/03 04:33:12;;;;;;;7.20;1.67;;;;;;;-142.75;100.00;76070.34;5049341;28;20487;-64
2023/07/03 04:35:38;;;;;;;6.22;0.98;;;;;;;-142.75;100.00;76052.63;5044725;28;20045;-64
2023/07/03 04:38:04;;;;;;;8.60;1.13;;;;;;;-142.75;100.00;76074.25;5047656;28;20095;-63
2023/07/03 04:40:29;;;;;;;8.15;1.50;;;;;;;-142.75;100.00;76074.25;5040787;28;20093;-63
2023/07/03 04:42:55;;;;;;;8.68;1.35;;;;;;;-142.75;100.00;76068.38;5049502;28;20075;-64
2023/07/03 04:45:21;;;;;;;4.68;1.13;;;;;;;-142.75;100.00;76060.50;5058128;28;20021;-64
2023/07/03 04:47:47;;;;;;;4.22;1.35;;;;;;;-142.75;100.00;76074.25;5053548;28;20116;-64
2023/07/03 04:50:15;;;;;;;6.57;1.10;;;;;;;-142.75;100.00;76078.19;5053706;28;20108;-63
2023/07/03 04:52:41;;;;;;;14.52;1.33;;;;;;;-142.75;100.00;76066.41;5062631;28;20380;-64
2023/07/03 04:55:08;;;;;;;5.70;1.00;;;;;;;-142.75;100.00;76086.06;5053611;28;20036;-63
2023/07/03 04:57:38;;;;;;;8.70;1.10;;;;;;;-142.75;100.00;76062.47;5052067;28;20579;-64
2023/07/03 05:00:16;;;;;;;8.50;1.10;;;;;;;-142.75;100.00;76074.25;5053016;28;20024;-64
2023/07/03 05:02:51;;;;;;;8.77;1.50;;;;;;;-142.75;100.00;76060.50;5052250;28;20043;-63
2023/07/03 05:05:18;;;;;;;4.72;0.95;;;;;;;-142.75;100.00;76062.47;5055138;28;20508;-64
2023/07/03 05:07:44;;;;;;;5.05;1.27;;;;;;;-142.75;100.00;76076.22;5045674;28;20028;-64
2023/07/03 05:10:13;;;;;;;7.75;0.90;;;;;;;-142.75;100.00;76058.53;5044499;28;20079;-64
2023/07/03 05:12:39;;;;;;;4.50;1.25;;;;;;;-142.75;100.00;76090.00;5046134;28;20028;-64
2023/07/03 05:15:08;;;;;;;5.82;1.00;;;;;;;-142.75;100.00;76066.41;5047774;28;20032;-65
2023/07/03 05:17:35;;;;;;;8.18;1.45;;;;;;;-142.75;100.00;76082.13;5047865;28;20025;-64
2023/07/03 05:20:01;;;;;;;6.57;1.38;;;;;;;-142.75;100.00;76068.38;5047750;28;20028;-64
2023/07/03 05:22:27;;;;;;;8.65;1.55;;;;;;;-142.75;100.00;76072.31;5047436;28;20028;-64
2023/07/03 05:24:52;;;;;;;5.05;1.13;;;;;;;-142.75;100.00;76066.41;5047565;28;20021;-64
2023/07/03 05:27:18;;;;;;;7.45;1.60;;;;;;;-142.75;100.00;76082.13;5047445;28;20032;-64
2023/07/03 05:29:43;;;;;;;4.22;1.10;;;;;;;-142.75;100.00;76095.91;5047551;28;20056;-64
2023/07/03 05:32:09;;;;;;;6.32;1.00;;;;;;;-142.75;100.00;76091.97;5047184;28;20028;-64
2023/07/03 05:34:37;;;;;;;10.00;1.33;;;;;;;-142.75;100.00;76101.81;5047468;28;20025;-64
2023/07/03 05:37:03;;;;;;;8.07;1.58;;;;;;;-142.75;100.00;76097.88;5047250;28;20032;-63
2023/07/03 05:39:28;;;;;;;13.45;1.48;;;;;;;-142.75;100.00;76091.97;5047181;28;20113;-64
2023/07/03 05:41:54;;;;;;;5.30;0.98;;;;;;;-142.75;100.00;76090.00;5045747;28;20413;-64
2023/07/03 05:44:20;;;;;;;5.38;1.33;;;;;;;-142.75;100.00;76090.00;5046716;28;20499;-64
2023/07/03 05:46:46;;;;;;;8.00;1.75;;;;;;;-142.75;100.00;76070.34;5048492;28;20060;-64
2023/07/03 05:49:11;;;;;;;14.93;1.75;;;;;;;-142.75;100.00;76060.50;5046891;28;20033;-63
2023/07/03 05:51:36;;;;;;;6.53;1.38;;;;;;;-142.75;100.00;76074.25;5047279;28;20492;-64
2023/07/03 05:54:02;;;;;;;10.00;2.28;;;;;;;-142.75;100.00;76052.63;5046268;28;20047;-64
2023/07/03 05:56:28;;;;;;;9.80;1.38;;;;;;;-142.75;100.00;76038.84;5047034;28;20136;-64
2023/07/03 05:58:54;;;;;;;6.88;1.00;;;;;;;-142.75;100.00;76066.41;5046872;28;20082;-63
2023/07/03 06:01:19;;;;;;;11.18;1.48;;;;;;;-142.75;100.00;76070.34;5046734;28;20569;-64
2023/07/03 06:03:44;;;;;;;5.55;0.82;;;;;;;-142.75;100.00;76060.50;5046880;28;20104;-64
2023/07/03 06:06:10;;;;;;;11.38;1.20;;;;;;;-142.75;100.00;76058.53;5045388;28;20021;-64
2023/07/03 06:08:35;;;;;;;6.90;1.58;;;;;;;-142.75;100.00;76062.47;5046292;28;20036;-64
2023/07/03 06:11:01;;;;;;;4.47;1.00;;;;;;;-142.75;100.00;76062.47;5047116;28;20079;-64
2023/07/03 06:13:26;;;;;;;7.30;0.90;;;;;;;-142.75;100.00;76068.38;5046294;28;20033;-64
2023/07/03 06:15:51;;;;;;;9.00;0.85;;;;;;;-142.75;100.00;76058.53;5045658;28;20503;-64
2023/07/03 06:18:17;;;;;;;7.03;1.25;;;;;;;-142.75;100.00;76042.78;5045700;28;20485;-64
2023/07/03 06:20:42;;;;;;;7.32;1.42;;;;;;;-142.75;100.00;76042.78;5045849;28;20669;-64
2023/07/03 06:23:08;;;;;;;10.60;1.95;;;;;;;-142.75;100.00;76029.00;5046000;28;20036;-63
2023/07/03 06:25:33;;;;;;;4.55;0.85;;;;;;;-142.75;100.00;76013.25;5045060;28;20029;-64
2023/07/03 06:27:59;;;;;;;9.50;1.10;;;;;;;-142.75;100.00;75995.53;5046123;28;20025;-64
2023/07/03 06:30:24;;;;;;;4.88;1.10;;;;;;;-142.75;100.00;75985.69;5045783;28;20043;-64
2023/07/03 06:32:49;;;;;;;8.65;1.38;;;;;;;-142.75;100.00;75995.53;5046020;28;20021;-64
2023/07/03 06:35:16;;;;;;;6.13;0.95;;;;;;;-142.75;100.00;75993.56;5046013;28;20630;-63
2023/07/03 06:37:42;;;;;;;9.02;1.48;;;;;;;-142.75;100.00;75983.72;5045694;28;20025;-63
2023/07/03 06:40:11;;;;;;;6.80;0.90;;;;;;;-142.75;100.00;75973.88;5040676;28;20393;-64
2023/07/03 06:42:40;;;;;;;8.43;1.50;;;;;;;-142.75;100.00;76015.22;5042237;28;20369;-64
2023/07/03 06:45:06;;;;;;;11.43;1.40;;;;;;;-142.75;100.00;76007.34;5042810;28;20370;-63
2023/07/03 06:47:31;;;;;;;6.80;1.48;;;;;;;-142.75;100.00;76015.22;5043886;28;20036;-64
2023/07/03 06:49:57;;;;;;;7.55;1.30;;;;;;;-142.75;100.00;76023.09;5042829;28;20029;-64
2023/07/03 06:52:22;;;;;;;4.63;1.10;;;;;;;-142.75;100.00;76030.97;5048878;28;20492;-63
2023/07/03 06:54:47;;;;;;;8.18;1.30;;;;;;;-142.75;100.00;76021.13;5043933;28;20487;-64
2023/07/03 06:57:13;;;;;;;7.90;1.35;;;;;;;-142.75;100.00;75997.50;5043367;28;20044;-64
2023/07/03 06:59:38;;;;;;;12.48;1.42;;;;;;;-142.75;100.00;75971.91;5041966;28;20048;-64
2023/07/03 07:02:06;;;;;;;8.15;1.52;;;;;;;-142.75;100.00;75948.31;5043988;28;20078;-63
2023/07/03 07:04:31;;;;;;;10.13;1.10;;;;;;;-142.75;100.00;75940.44;5044186;28;20025;-64
2023/07/03 07:06:57;;;;;;;12.23;2.22;;;;;;;-142.75;100.00;75954.22;5048451;28;20059;-64
2023/07/03 07:09:22;;;;;;;9.73;1.67;;;;;;;-142.75;100.00;75952.25;5042325;28;20057;-63
2023/07/03 07:11:48;;;;;;;7.25;1.27;;;;;;;-142.75;100.00;75926.66;5042009;28;20025;-63
2023/07/03 07:14:14;;;;;;;7.45;1.33;;;;;;;-142.75;100.00;75934.53;5038801;28;20100;-64
2023/07/03 07:16:40;;;;;;;10.80;1.48;;;;;;;-142.75;100.00;75958.16;5045570;28;20009;-64
2023/07/03 07:19:07;;;;;;;6.50;1.10;;;;;;;-142.75;100.00;75967.97;5042462;28;20823;-63
2023/07/03 07:21:35;;;;;;;5.53;1.08;;;;;;;-142.75;100.00;75962.09;5044675;28;20025;-63
2023/07/03 07:24:11;;;;;;;8.15;1.33;;;;;;;-142.75;100.00;75966.00;5043622;28;20158;-63
2023/07/03 07:26:36;;;;;;;9.00;1.37;;;;;;;-142.75;100.00;75973.88;5042872;28;20079;-63
2023/07/03 07:29:01;;;;;;;6.00;1.30;;;;;;;-142.75;100.00;75971.91;5046265;28;22276;-63
2023/07/03 07:31:28;;;;;;;10.35;1.42;;;;;;;-142.75;100.00;75948.31;5044158;28;20020;-64
2023/07/03 07:33:54;;;;;;;7.90;1.30;;;;;;;-142.75;100.00;75914.84;5043551;28;20028;-63
2023/07/03 07:36:22;;;;;;;9.13;1.20;;;;;;;-142.75;100.00;75855.81;5042058;28;20154;-64
2023/07/03 07:38:54;;;;;;;6.68;1.17;;;;;;;-142.75;100.00;75806.59;5043110;28;20111;-63
2023/07/03 07:41:20;;;;;;;4.82;1.08;;;;;;;-142.75;100.00;75800.69;5043671;28;20029;-64
2023/07/03 07:43:47;;;;;;;5.60;1.25;;;;;;;-142.75;100.00;75781.00;5042848;28;20044;-64
2023/07/03 07:46:13;;;;;;;5.90;1.20;;;;;;;-142.75;100.00;75765.25;5040233;28;20621;-64
2023/07/03 07:48:38;;;;;;;6.10;0.80;;;;;;;-142.75;100.00;75777.06;5048559;28;20021;-64
2023/07/03 07:51:09;;;;;;;6.90;1.10;;;;;;;-142.75;100.00;75769.19;5043017;28;20492;-64
2023/07/03 07:53:34;;;;;;;6.88;1.33;;;;;;;-142.75;100.00;75773.13;5042546;28;20174;-66
2023/07/03 07:56:00;;;;;;;5.53;1.08;;;;;;;-142.75;100.00;75792.81;5043917;28;20719;-64
2023/07/03 07:58:26;;;;;;;5.22;1.25;;;;;;;-142.75;100.00;75798.72;5047568;28;20572;-64
2023/07/03 08:00:53;;;;;;;7.40;0.88;;;;;;;-142.75;100.00;75806.59;5043262;28;20029;-63
2023/07/03 08:03:18;;;;;;;7.00;2.10;;;;;;;-142.75;100.00;75824.31;5037836;28;20020;-64
2023/07/03 08:05:44;;;;;;;5.40;1.20;;;;;;;-142.75;100.00;75844.00;5043071;28;20033;-64
2023/07/03 08:08:09;;;;;;;6.60;1.48;;;;;;;-142.75;100.00;75834.16;5041931;28;20423;-64
2023/07/03 08:10:34;;;;;;;7.47;1.20;;;;;;;-142.75;100.00;75836.13;5043296;28;20029;-64
2023/07/03 08:13:00;;;;;;;6.57;1.17;;;;;;;-142.75;100.00;75838.09;5043047;28;20029;-64
2023/07/03 08:15:26;;;;;;;8.82;1.42;;;;;;;-142.75;100.00;75861.69;5041336;28;20043;-64
2023/07/03 08:17:51;;;;;;;8.43;1.45;;;;;;;-142.75;100.00;75857.78;5045130;28;20021;-64
2023/07/03 08:20:17;;;;;;;16.67;1.05;;;;;;;-142.75;100.00;75853.84;5046751;28;20492;-64
2023/07/03 08:22:42;;;;;;;10.77;1.42;;;;;;;-142.75;100.00;75867.59;5046732;28;20128;-64
2023/07/03 08:25:09;;;;;;;6.85;1.20;;;;;;;-142.75;100.00;75885.31;5047369;28;20020;-64
2023/07/03 08:27:34;;;;;;;2.88;1.00;;;;;;;-142.75;100.00;75871.53;5046670;28;20484;-64
2023/07/03 08:30:02;;;;;;;5.95;0.75;;;;;;;-142.75;100.00;75873.50;5044981;28;20053;-64
2023/07/03 08:32:27;;;;;;;8.30;1.25;;;;;;;-142.75;100.00;75871.53;5045978;28;20057;-64
2023/07/03 08:34:53;;;;;;;7.50;1.10;;;;;;;-142.75;100.00;75889.25;5046847;28;20611;-64
2023/07/03 08:37:19;;;;;;;6.72;1.58;;;;;;;-142.75;100.00;75879.41;5046984;28;20033;-65
2023/07/03 08:39:44;;;;;;;7.07;1.08;;;;;;;-142.75;100.00;75879.41;5046007;28;20618;-64
2023/07/03 08:42:21;;;;;;;5.35;1.05;;;;;;;-142.75;100.00;75869.56;5046300;28;20032;-64
2023/07/03 08:44:47;;;;;;;5.75;0.90;;;;;;;-142.75;100.00;75910.91;5046138;28;20369;-64
2023/07/03 08:47:18;;;;;;;1.48;0.47;;;;;;;-142.75;100.00;75893.19;5044786;28;20025;-63
2023/07/03 08:49:46;;;;;;;4.20;1.10;;;;;;;-142.75;100.00;75871.53;5046723;28;20043;-63
2023/07/03 08:52:23;;;;;;;7.88;1.23;;;;;;;-142.75;100.00;75834.16;5044809;28;20032;-63
2023/07/03 08:54:51;;;;;;;9.45;1.60;;;;;;;-142.75;100.00;75818.41;5044165;28;20025;-63
2023/07/03 08:57:17;;;;;;;5.63;1.15;;;;;;;-142.75;100.00;75842.03;5046835;28;20068;-63
2023/07/03 08:59:43;;;;;;;7.70;1.00;;;;;;;-142.75;100.00;75842.03;5044902;28;20017;-63
2023/07/03 09:02:23;;;;;;;6.63;1.10;;;;;;;-142.75;100.00;75861.69;5045377;28;20024;-63
2023/07/03 09:05:05;;;;;;;5.97;1.27;;;;;;;-142.75;100.00;75877.44;5046010;28;20500;-63
2023/07/03 09:07:54;;;;;;;7.93;1.05;;;;;;;-142.75;100.00;75893.19;5050275;28;20071;-63
2023/07/03 09:10:26;;;;;;;7.50;1.30;;;;;;;-142.75;100.00;75936.50;5044305;28;20039;-63
2023/07/03 09:13:03;;;;;;;8.52;1.73;;;;;;;-142.75;100.00;75938.47;5044117;28;20021;-64
2023/07/03 09:15:29;;;;;;;7.97;1.20;;;;;;;-142.75;100.00;75954.22;5043839;28;20029;-64
2023/07/03 09:17:57;;;;;;;5.93;1.73;;;;;;;-142.75;100.00;75956.19;5044072;28;20032;-63
2023/07/03 09:20:24;;;;;;;6.30;1.25;;;;;;;-142.75;100.00;75952.25;5044658;28;20395;-63
2023/07/03 09:22:58;;;;;;;8.40;1.52;;;;;;;-142.75;100.00;75934.53;5044340;28;20035;-63
2023/07/03 09:25:30;;;;;;;7.72;1.23;;;;;;;-142.75;100.00;75926.66;5049371;28;20020;-63
2023/07/03 09:27:58;;;;;;;7.43;1.00;;;;;;;-142.75;100.00;75916.81;5043734;28;20111;-64
2023/07/03 09:30:24;;;;;;;12.60;1.98;;;;;;;-142.75;100.00;75879.41;5044608;28;20594;-63
2023/07/03 09:32:49;;;;;;;9.82;1.30;;;;;;;-142.75;100.00;75861.69;5044520;28;20036;-64
2023/07/03 09:35:17;;;;;;;5.85;1.30;;;;;;;-142.75;100.00;75887.28;5045144;28;20037;-63
2023/07/03 09:37:45;;;;;;;4.75;1.27;;;;;;;-142.75;100.00;75879.41;5046956;28;20083;-62
2023/07/03 09:40:20;;;;;;;10.20;1.88;;;;;;;-142.75;100.00;75857.78;5043076;28;20028;-64
2023/07/03 09:42:46;;;;;;;7.60;1.10;;;;;;;-142.75;100.00;75881.38;5045588;28;20024;-63
2023/07/03 09:45:16;;;;;;;9.43;1.20;;;;;;;-142.75;100.00;75871.53;5044237;28;20032;-64
2023/07/03 09:47:50;;;;;;;10.60;2.00;;;;;;;-142.75;100.00;75869.56;5043704;28;20052;-62
2023/07/03 09:50:21;;;;;;;9.70;1.08;;;;;;;-142.75;100.00;75865.63;5045610;28;21984;-63
2023/07/03 09:52:47;;;;;;;7.68;1.50;;;;;;;-142.75;100.00;75916.81;5046157;28;20036;-63
2023/07/03 09:55:15;;;;;;;7.88;1.40;;;;;;;-142.75;100.00;75942.41;5046713;28;20032;-63
2023/07/03 09:57:41;;;;;;;5.47;1.30;;;;;;;-142.75;100.00;75960.13;5046945;28;20538;-63
2023/07/03 10:00:15;;;;;;;11.82;1.50;;;;;;;-142.75;100.00;75952.25;5046930;28;20028;-61
2023/07/03 10:02:42;;;;;;;7.63;1.25;;;;;;;-142.75;100.00;75960.13;5046660;28;20029;-63
2023/07/03 10:05:13;;;;;;;10.73;1.40;;;;;;;-142.75;100.00;75962.09;5046952;28;20118;-63
2023/07/03 10:07:41;;;;;;;5.07;1.33;;;;;;;-142.75;100.00;75960.13;5048735;28;20483;-62
2023/07/03 10:10:10;;;;;;;3.72;1.30;;;;;;;-142.75;100.00;75950.28;5051843;28;20507;-62
2023/07/03 10:12:42;;;;;;;7.05;1.10;;;;;;;-142.75;100.00;75940.44;5047039;28;20415;-63
2023/07/03 10:15:20;;;;;;;8.48;1.63;;;;;;;-142.75;100.00;75956.19;5046637;28;20052;-63
2023/07/03 10:17:54;;;;;;;10.95;1.35;;;;;;;-142.75;100.00;75967.97;5048693;28;20052;-61
2023/07/03 10:20:26;;;;;;;10.20;1.90;;;;;;;-142.75;100.00;75969.94;5065607;28;20029;-62
2023/07/03 10:22:53;;;;;;;9.65;1.45;;;;;;;-142.75;100.00;75987.66;5064913;28;20025;-62
2023/07/03 10:25:24;;;;;;;6.45;1.15;;;;;;;-142.75;100.00;76003.41;5046348;28;20057;-62
2023/07/03 10:27:55;;;;;;;4.82;1.10;;;;;;;-142.75;100.00;76007.34;5046202;28;20039;-62
2023/07/03 10:30:20;;;;;;;9.85;1.70;;;;;;;-142.75;100.00;75995.53;5046514;28;20040;-62
2023/07/03 10:32:50;;;;;;;4.15;0.88;;;;;;;-142.75;100.00;75995.53;5046234;28;20142;-61
2023/07/03 10:35:27;;;;;;;7.72;1.02;;;;;;;-142.75;100.00;76011.28;5046450;28;20120;-60
2023/07/03 10:38:10;;;;;;;5.75;0.93;;;;;;;-142.75;100.00;75983.72;5046279;28;20029;-62
2023/07/03 10:40:47;;;;;;;6.55;1.05;;;;;;;-142.75;100.00;75973.88;5046073;28;20035;-61
2023/07/03 10:43:14;;;;;;;5.68;1.33;;;;;;;-142.75;100.00;75960.13;5046379;28;20021;-62
2023/07/03 10:45:40;;;;;;;10.02;1.63;;;;;;;-142.75;100.00;75975.84;5045949;28;20106;-61
2023/07/03 10:48:14;;;;;;;8.88;1.10;;;;;;;-142.75;100.00;75954.22;5046268;28;20566;-61
2023/07/03 10:51:31;;;;;;;7.50;1.33;;;;;;;-142.75;100.00;75928.63;5045963;28;20092;-62
2023/07/03 10:54:09;;;;;;;7.55;1.38;;;;;;;-142.75;100.00;75879.41;5033350;28;20079;-62
2023/07/03 10:56:44;;;;;;;5.82;1.17;;;;;;;-142.75;100.00;75814.47;5045790;28;20055;-62
2023/07/03 10:59:15;;;;;;;8.73;1.13;;;;;;;-142.75;100.00;75822.34;5065643;28;20028;-62
2023/07/03 11:01:59;;;;;;;9.65;1.42;;;;;;;-142.75;100.00;75836.13;5065455;28;20024;-62
2023/07/03 11:04:31;;;;;;;3.20;0.75;;;;;;;-142.75;100.00;75806.59;5065750;28;20655;-62
2023/07/03 11:07:09;;;;;;;7.22;2.17;;;;;;;-142.75;100.00;75751.50;5065423;28;20373;-62
2023/07/03 11:10:00;;;;;;;6.13;0.95;;;;;;;-142.75;100.00;75747.56;5065336;28;20654;-63